sensor_id;sensor_type;location;lat;lon;timestamp;temperature;humidity
32097;DHT22;18610;49.916;8.284;2024-01-25T00:01:41;9.20;99.90
32097;DHT22;18610;49.916;8.284;2024-01-25T00:04:08;9.20;99.90
32097;DHT22;18610;49.916;8.284;2024-01-25T00:06:35;9.10;99.90
32097;DHT22;18610;49.916;8.284;2024-01-25T00:09:03;9.20;99.90
32097;DHT22;18610;49.916;8.284;2024-01-25T00:11:30;9.20;99.90
32097;DHT22;18610;49.916;8.284;2024-01-25T00:13:57;9.20;99.90
32097;DHT22;18610;49.916;8.284;2024-01-25T00:16:24;9.10;99.90
32097;DHT22;18610;49.916;8.284;2024-01-25T00:18:50;9.10;99.90
32097;DHT22;18610;49.916;8.284;2024-01-25T00:21:17;9.10;99.90
32097;DHT22;18610;49.916;8.284;2024-01-25T00:23:44;9.10;99.90
32097;DHT22;18610;49.916;8.284;2024-01-25T00:26:12;9.00;99.90
32097;DHT22;18610;49.916;8.284;2024-01-25T00:28:39;9.00;99.90
32097;DHT22;18610;49.916;8.284;2024-01-25T00:31:06;9.00;99.90
32097;DHT22;18610;49.916;8.284;2024-01-25T00:33:32;8.90;99.90
32097;DHT22;18610;49.916;8.284;2024-01-25T00:36:00;8.90;99.90
32097;DHT22;18610;49.916;8.284;2024-01-25T00:38:27;8.90;99.90
32097;DHT22;18610;49.916;8.284;2024-01-25T00:40:55;8.90;99.90
32097;DHT22;18610;49.916;8.284;2024-01-25T00:43:23;8.90;99.90
32097;DHT22;18610;49.916;8.284;2024-01-25T00:45:50;8.90;99.90
32097;DHT22;18610;49.916;8.284;2024-01-25T00:48:17;8.90;99.90
32097;DHT22;18610;49.916;8.284;2024-01-25T00:50:45;8.90;99.90
32097;DHT22;18610;49.916;8.284;2024-01-25T00:53:12;8.90;99.90
32097;DHT22;18610;49.916;8.284;2024-01-25T00:55:39;8.90;99.90
32097;DHT22;18610;49.916;8.284;2024-01-25T00:58:07;8.90;99.90
32097;DHT22;18610;49.916;8.284;2024-01-25T01:00:36;8.90;99.90
32097;DHT22;18610;49.916;8.284;2024-01-25T01:03:04;8.90;99.90
32097;DHT22;18610;49.916;8.284;2024-01-25T01:05:31;8.90;99.90
32097;DHT22;18610;49.916;8.284;2024-01-25T01:07:58;8.80;99.90
32097;DHT22;18610;49.916;8.284;2024-01-25T01:10:25;8.90;99.90
32097;DHT22;18610;49.916;8.284;2024-01-25T01:12:51;8.80;99.90
32097;DHT22;18610;49.916;8.284;2024-01-25T01:15:19;8.80;99.90
32097;DHT22;18610;49.916;8.284;2024-01-25T01:17:47;8.80;99.90
32097;DHT22;18610;49.916;8.284;2024-01-25T01:20:14;8.90;99.90
32097;DHT22;18610;49.916;8.284;2024-01-25T01:22:41;8.80;99.90
32097;DHT22;18610;49.916;8.284;2024-01-25T01:25:07;8.90;99.90
32097;DHT22;18610;49.916;8.284;2024-01-25T01:27:35;8.90;99.90
32097;DHT22;18610;49.916;8.284;2024-01-25T01:30:03;8.90;99.90
32097;DHT22;18610;49.916;8.284;2024-01-25T01:32:29;8.90;99.90
32097;DHT22;18610;49.916;8.284;2024-01-25T01:34:57;8.90;99.90
32097;DHT22;18610;49.916;8.284;2024-01-25T01:37:24;9.00;99.90
32097;DHT22;18610;49.916;8.284;2024-01-25T01:39:51;9.00;99.90
32097;DHT22;18610;49.916;8.284;2024-01-25T01:42:18;9.00;99.90
32097;DHT22;18610;49.916;8.284;2024-01-25T01:44:44;9.00;99.90
32097;DHT22;18610;49.916;8.284;2024-01-25T01:47:11;9.00;99.90
32097;DHT22;18610;49.916;8.284;2024-01-25T01:49:38;9.10;99.90
32097;DHT22;18610;49.916;8.284;2024-01-25T01:52:06;9.10;99.90
32097;DHT22;18610;49.916;8.284;2024-01-25T01:54:33;9.10;99.90
32097;DHT22;18610;49.916;8.284;2024-01-25T01:57:00;9.10;99.90
32097;DHT22;18610;49.916;8.284;2024-01-25T01:59:28;9.10;99.90
32097;DHT22;18610;49.916;8.284;2024-01-25T02:01:54;9.10;99.90
32097;DHT22;18610;49.916;8.284;2024-01-25T02:04:21;9.00;99.90
32097;DHT22;18610;49.916;8.284;2024-01-25T02:06:48;9.00;99.90
32097;DHT22;18610;49.916;8.284;2024-01-25T02:09:16;8.90;99.90
32097;DHT22;18610;49.916;8.284;2024-01-25T02:11:43;8.80;99.90
32097;DHT22;18610;49.916;8.284;2024-01-25T02:14:09;8.80;99.90
32097;DHT22;18610;49.916;8.284;2024-01-25T02:16:37;8.80;99.90
32097;DHT22;18610;49.916;8.284;2024-01-25T02:19:04;8.80;99.90
32097;DHT22;18610;49.916;8.284;2024-01-25T02:21:30;8.80;99.90
32097;DHT22;18610;49.916;8.284;2024-01-25T02:23:58;8.80;99.90
32097;DHT22;18610;49.916;8.284;2024-01-25T02:26:25;8.80;99.90
32097;DHT22;18610;49.916;8.284;2024-01-25T02:28:52;8.80;99.90
32097;DHT22;18610;49.916;8.284;2024-01-25T02:31:18;8.70;99.90
32097;DHT22;18610;49.916;8.284;2024-01-25T02:33:45;8.70;99.90
32097;DHT22;18610;49.916;8.284;2024-01-25T02:36:12;8.70;99.90
32097;DHT22;18610;49.916;8.284;2024-01-25T02:38:38;8.70;99.90
32097;DHT22;18610;49.916;8.284;2024-01-25T02:41:06;8.70;99.90
32097;DHT22;18610;49.916;8.284;2024-01-25T02:43:33;8.70;99.90
32097;DHT22;18610;49.916;8.284;2024-01-25T02:46:00;8.70;99.90
32097;DHT22;18610;49.916;8.284;2024-01-25T02:48:26;8.70;99.90
32097;DHT22;18610;49.916;8.284;2024-01-25T02:50:53;8.70;99.90
32097;DHT22;18610;49.916;8.284;2024-01-25T02:53:20;8.70;99.90
32097;DHT22;18610;49.916;8.284;2024-01-25T02:55:46;8.70;99.90
32097;DHT22;18610;49.916;8.284;2024-01-25T02:58:15;8.60;99.90
32097;DHT22;18610;49.916;8.284;2024-01-25T03:00:41;8.60;99.90
32097;DHT22;18610;49.916;8.284;2024-01-25T03:03:08;8.60;99.90
32097;DHT22;18610;49.916;8.284;2024-01-25T03:05:35;8.60;99.90
32097;DHT22;18610;49.916;8.284;2024-01-25T03:08:02;8.50;99.90
32097;DHT22;18610;49.916;8.284;2024-01-25T03:10:29;8.50;99.90
32097;DHT22;18610;49.916;8.284;2024-01-25T03:12:55;8.50;99.90
32097;DHT22;18610;49.916;8.284;2024-01-25T03:15:23;8.50;99.90
32097;DHT22;18610;49.916;8.284;2024-01-25T03:17:50;8.50;99.90
32097;DHT22;18610;49.916;8.284;2024-01-25T03:20:17;8.50;99.90
32097;DHT22;18610;49.916;8.284;2024-01-25T03:22:44;8.50;99.90
32097;DHT22;18610;49.916;8.284;2024-01-25T03:25:11;8.50;99.90
32097;DHT22;18610;49.916;8.284;2024-01-25T03:27:38;8.50;99.90
32097;DHT22;18610;49.916;8.284;2024-01-25T03:30:05;8.50;99.90
32097;DHT22;18610;49.916;8.284;2024-01-25T03:32:34;8.50;99.90
32097;DHT22;18610;49.916;8.284;2024-01-25T03:35:00;8.50;99.90
32097;DHT22;18610;49.916;8.284;2024-01-25T03:37:27;8.50;99.90
32097;DHT22;18610;49.916;8.284;2024-01-25T03:39:54;8.50;99.90
32097;DHT22;18610;49.916;8.284;2024-01-25T03:42:20;8.50;99.90
32097;DHT22;18610;49.916;8.284;2024-01-25T03:44:47;8.50;99.90
32097;DHT22;18610;49.916;8.284;2024-01-25T03:47:14;8.60;99.90
32097;DHT22;18610;49.916;8.284;2024-01-25T03:49:42;8.60;99.90
32097;DHT22;18610;49.916;8.284;2024-01-25T03:52:09;8.60;99.90
32097;DHT22;18610;49.916;8.284;2024-01-25T03:54:35;8.60;99.90
32097;DHT22;18610;49.916;8.284;2024-01-25T03:57:03;8.60;99.90
32097;DHT22;18610;49.916;8.284;2024-01-25T03:59:30;8.60;99.90
32097;DHT22;18610;49.916;8.284;2024-01-25T04:01:56;8.60;99.90
32097;DHT22;18610;49.916;8.284;2024-01-25T04:04:23;8.60;99.90
32097;DHT22;18610;49.916;8.284;2024-01-25T04:06:51;8.60;99.90
32097;DHT22;18610;49.916;8.284;2024-01-25T04:09:18;8.60;99.90
32097;DHT22;18610;49.916;8.284;2024-01-25T04:11:44;8.60;99.90
32097;DHT22;18610;49.916;8.284;2024-01-25T04:14:11;8.60;99.90
32097;DHT22;18610;49.916;8.284;2024-01-25T04:16:38;8.60;99.90
32097;DHT22;18610;49.916;8.284;2024-01-25T04:19:05;8.60;99.90
32097;DHT22;18610;49.916;8.284;2024-01-25T04:21:31;8.70;99.90
32097;DHT22;18610;49.916;8.284;2024-01-25T04:23:59;8.70;99.90
32097;DHT22;18610;49.916;8.284;2024-01-25T04:26:26;8.70;99.90
32097;DHT22;18610;49.916;8.284;2024-01-25T04:28:52;8.70;99.90
32097;DHT22;18610;49.916;8.284;2024-01-25T04:31:19;8.70;99.90
32097;DHT22;18610;49.916;8.284;2024-01-25T04:33:46;8.70;99.90
32097;DHT22;18610;49.916;8.284;2024-01-25T04:36:12;8.70;99.90
32097;DHT22;18610;49.916;8.284;2024-01-25T04:38:39;8.70;99.90
32097;DHT22;18610;49.916;8.284;2024-01-25T04:41:07;8.70;99.90
32097;DHT22;18610;49.916;8.284;2024-01-25T04:43:34;8.70;99.90
32097;DHT22;18610;49.916;8.284;2024-01-25T04:46:02;8.70;99.90
32097;DHT22;18610;49.916;8.284;2024-01-25T04:48:29;8.70;99.90
32097;DHT22;18610;49.916;8.284;2024-01-25T04:50:56;8.70;99.90
32097;DHT22;18610;49.916;8.284;2024-01-25T04:53:24;8.70;99.90
32097;DHT22;18610;49.916;8.284;2024-01-25T04:55:50;8.60;99.90
32097;DHT22;18610;49.916;8.284;2024-01-25T04:58:18;8.50;99.90
32097;DHT22;18610;49.916;8.284;2024-01-25T05:00:45;8.50;99.90
32097;DHT22;18610;49.916;8.284;2024-01-25T05:03:12;8.50;99.90
32097;DHT22;18610;49.916;8.284;2024-01-25T05:05:38;8.50;99.90
32097;DHT22;18610;49.916;8.284;2024-01-25T05:08:06;8.60;99.90
32097;DHT22;18610;49.916;8.284;2024-01-25T05:10:32;8.60;99.90
32097;DHT22;18610;49.916;8.284;2024-01-25T05:12:59;8.60;99.90
32097;DHT22;18610;49.916;8.284;2024-01-25T05:15:27;8.60;99.90
32097;DHT22;18610;49.916;8.284;2024-01-25T05:17:54;8.60;99.90
32097;DHT22;18610;49.916;8.284;2024-01-25T05:20:20;8.60;99.90
32097;DHT22;18610;49.916;8.284;2024-01-25T05:22:47;8.60;99.90
32097;DHT22;18610;49.916;8.284;2024-01-25T05:25:14;8.60;99.90
32097;DHT22;18610;49.916;8.284;2024-01-25T05:27:40;8.60;99.90
32097;DHT22;18610;49.916;8.284;2024-01-25T05:30:08;8.60;99.90
32097;DHT22;18610;49.916;8.284;2024-01-25T05:32:36;8.50;99.90
32097;DHT22;18610;49.916;8.284;2024-01-25T05:35:04;8.60;99.90
32097;DHT22;18610;49.916;8.284;2024-01-25T05:37:31;8.50;99.90
32097;DHT22;18610;49.916;8.284;2024-01-25T05:39:57;8.50;99.90
32097;DHT22;18610;49.916;8.284;2024-01-25T05:42:24;8.50;99.90
32097;DHT22;18610;49.916;8.284;2024-01-25T05:44:51;8.60;99.90
32097;DHT22;18610;49.916;8.284;2024-01-25T05:47:17;8.60;99.90
32097;DHT22;18610;49.916;8.284;2024-01-25T05:49:46;8.60;99.90
32097;DHT22;18610;49.916;8.284;2024-01-25T05:52:13;8.60;99.90
32097;DHT22;18610;49.916;8.284;2024-01-25T05:54:40;8.50;99.90
32097;DHT22;18610;49.916;8.284;2024-01-25T05:57:07;8.40;99.90
32097;DHT22;18610;49.916;8.284;2024-01-25T05:59:33;8.40;99.90
32097;DHT22;18610;49.916;8.284;2024-01-25T06:02:00;8.40;99.90
32097;DHT22;18610;49.916;8.284;2024-01-25T06:04:27;8.40;99.90
32097;DHT22;18610;49.916;8.284;2024-01-25T06:06:55;8.40;99.90
32097;DHT22;18610;49.916;8.284;2024-01-25T06:09:22;8.40;99.90
32097;DHT22;18610;49.916;8.284;2024-01-25T06:11:49;8.40;99.90
32097;DHT22;18610;49.916;8.284;2024-01-25T06:14:16;8.30;99.90
32097;DHT22;18610;49.916;8.284;2024-01-25T06:16:43;8.30;99.90
32097;DHT22;18610;49.916;8.284;2024-01-25T06:19:10;8.20;99.90
32097;DHT22;18610;49.916;8.284;2024-01-25T06:21:37;8.20;99.90
32097;DHT22;18610;49.916;8.284;2024-01-25T06:24:05;8.30;99.90
32097;DHT22;18610;49.916;8.284;2024-01-25T06:26:32;8.20;99.90
32097;DHT22;18610;49.916;8.284;2024-01-25T06:28:59;8.20;99.90
32097;DHT22;18610;49.916;8.284;2024-01-25T06:31:26;8.20;99.90
32097;DHT22;18610;49.916;8.284;2024-01-25T06:33:53;8.20;99.90
32097;DHT22;18610;49.916;8.284;2024-01-25T06:36:19;8.20;99.90
32097;DHT22;18610;49.916;8.284;2024-01-25T06:38:46;8.20;99.90
32097;DHT22;18610;49.916;8.284;2024-01-25T06:41:14;8.10;99.90
32097;DHT22;18610;49.916;8.284;2024-01-25T06:43:41;8.10;99.90
32097;DHT22;18610;49.916;8.284;2024-01-25T06:46:08;8.00;99.90
32097;DHT22;18610;49.916;8.284;2024-01-25T06:48:35;8.00;99.90
32097;DHT22;18610;49.916;8.284;2024-01-25T06:51:02;8.00;99.90
32097;DHT22;18610;49.916;8.284;2024-01-25T06:53:28;7.90;99.90
32097;DHT22;18610;49.916;8.284;2024-01-25T06:55:55;7.90;99.90
32097;DHT22;18610;49.916;8.284;2024-01-25T06:58:23;7.90;99.90
32097;DHT22;18610;49.916;8.284;2024-01-25T07:00:50;7.90;99.90
32097;DHT22;18610;49.916;8.284;2024-01-25T07:03:18;7.90;99.90
32097;DHT22;18610;49.916;8.284;2024-01-25T07:05:45;7.90;99.90
32097;DHT22;18610;49.916;8.284;2024-01-25T07:08:11;7.80;99.90
32097;DHT22;18610;49.916;8.284;2024-01-25T07:10:39;7.80;99.90
32097;DHT22;18610;49.916;8.284;2024-01-25T07:13:05;7.80;99.90
32097;DHT22;18610;49.916;8.284;2024-01-25T07:15:33;7.80;99.90
32097;DHT22;18610;49.916;8.284;2024-01-25T07:18:00;7.80;99.90
32097;DHT22;18610;49.916;8.284;2024-01-25T07:20:27;7.80;99.90
32097;DHT22;18610;49.916;8.284;2024-01-25T07:22:54;7.70;99.90
32097;DHT22;18610;49.916;8.284;2024-01-25T07:25:20;7.70;99.90
32097;DHT22;18610;49.916;8.284;2024-01-25T07:27:47;7.70;99.90
32097;DHT22;18610;49.916;8.284;2024-01-25T07:30:15;7.60;99.90
32097;DHT22;18610;49.916;8.284;2024-01-25T07:32:43;7.60;99.90
32097;DHT22;18610;49.916;8.284;2024-01-25T07:35:11;7.60;99.90
32097;DHT22;18610;49.916;8.284;2024-01-25T07:37:39;7.60;99.90
32097;DHT22;18610;49.916;8.284;2024-01-25T07:40:07;7.50;99.90
32097;DHT22;18610;49.916;8.284;2024-01-25T07:42:34;7.60;99.90
32097;DHT22;18610;49.916;8.284;2024-01-25T07:45:00;7.70;99.90
32097;DHT22;18610;49.916;8.284;2024-01-25T07:47:27;7.70;99.90
32097;DHT22;18610;49.916;8.284;2024-01-25T07:49:55;7.70;99.90
32097;DHT22;18610;49.916;8.284;2024-01-25T07:52:22;7.60;99.90
32097;DHT22;18610;49.916;8.284;2024-01-25T07:54:48;7.60;99.90
32097;DHT22;18610;49.916;8.284;2024-01-25T07:57:15;7.60;99.90
32097;DHT22;18610;49.916;8.284;2024-01-25T07:59:42;7.70;99.90
32097;DHT22;18610;49.916;8.284;2024-01-25T08:02:08;7.70;99.90
32097;DHT22;18610;49.916;8.284;2024-01-25T08:04:35;7.70;99.90
32097;DHT22;18610;49.916;8.284;2024-01-25T08:07:03;7.70;99.90
32097;DHT22;18610;49.916;8.284;2024-01-25T08:09:30;7.80;99.90
32097;DHT22;18610;49.916;8.284;2024-01-25T08:11:56;7.90;99.90
32097;DHT22;18610;49.916;8.284;2024-01-25T08:14:23;8.00;99.90
32097;DHT22;18610;49.916;8.284;2024-01-25T08:16:50;8.10;99.90
32097;DHT22;18610;49.916;8.284;2024-01-25T08:19:16;8.20;99.90
32097;DHT22;18610;49.916;8.284;2024-01-25T08:21:43;8.30;99.90
32097;DHT22;18610;49.916;8.284;2024-01-25T08:24:11;8.30;99.90
32097;DHT22;18610;49.916;8.284;2024-01-25T08:26:38;8.40;99.90
32097;DHT22;18610;49.916;8.284;2024-01-25T08:29:05;8.50;99.90
32097;DHT22;18610;49.916;8.284;2024-01-25T08:31:31;8.50;99.90
32097;DHT22;18610;49.916;8.284;2024-01-25T08:33:58;8.50;99.90
32097;DHT22;18610;49.916;8.284;2024-01-25T08:36:25;8.50;99.90
32097;DHT22;18610;49.916;8.284;2024-01-25T08:38:51;8.60;99.90
32097;DHT22;18610;49.916;8.284;2024-01-25T08:41:19;8.50;99.90
32097;DHT22;18610;49.916;8.284;2024-01-25T08:43:46;8.60;99.90
32097;DHT22;18610;49.916;8.284;2024-01-25T08:46:14;8.60;99.90
32097;DHT22;18610;49.916;8.284;2024-01-25T08:48:41;8.60;99.90
32097;DHT22;18610;49.916;8.284;2024-01-25T08:51:08;8.70;99.90
32097;DHT22;18610;49.916;8.284;2024-01-25T08:53:35;8.70;99.90
32097;DHT22;18610;49.916;8.284;2024-01-25T08:56:01;8.70;99.90
32097;DHT22;18610;49.916;8.284;2024-01-25T08:58:31;8.70;99.90
32097;DHT22;18610;49.916;8.284;2024-01-25T09:00:57;8.80;99.90
32097;DHT22;18610;49.916;8.284;2024-01-25T09:03:24;8.90;99.90
32097;DHT22;18610;49.916;8.284;2024-01-25T09:05:51;9.10;99.90
32097;DHT22;18610;49.916;8.284;2024-01-25T09:08:18;9.20;99.90
32097;DHT22;18610;49.916;8.284;2024-01-25T09:10:45;9.30;99.90
32097;DHT22;18610;49.916;8.284;2024-01-25T09:13:11;9.40;99.90
32097;DHT22;18610;49.916;8.284;2024-01-25T09:15:39;9.50;99.90
32097;DHT22;18610;49.916;8.284;2024-01-25T09:18:06;9.70;99.90
32097;DHT22;18610;49.916;8.284;2024-01-25T09:20:33;9.80;99.90
32097;DHT22;18610;49.916;8.284;2024-01-25T09:23:00;9.90;99.90
32097;DHT22;18610;49.916;8.284;2024-01-25T09:25:26;10.10;99.90
32097;DHT22;18610;49.916;8.284;2024-01-25T09:27:53;10.20;99.90
32097;DHT22;18610;49.916;8.284;2024-01-25T09:30:22;10.20;99.90
32097;DHT22;18610;49.916;8.284;2024-01-25T09:32:50;10.30;99.90
32097;DHT22;18610;49.916;8.284;2024-01-25T09:35:17;10.50;99.90
32097;DHT22;18610;49.916;8.284;2024-01-25T09:37:43;10.50;99.90
32097;DHT22;18610;49.916;8.284;2024-01-25T09:40:11;10.60;99.90
32097;DHT22;18610;49.916;8.284;2024-01-25T09:42:38;10.60;99.90
32097;DHT22;18610;49.916;8.284;2024-01-25T09:45:06;10.60;99.90
32097;DHT22;18610;49.916;8.284;2024-01-25T09:47:33;10.50;99.90
32097;DHT22;18610;49.916;8.284;2024-01-25T09:50:02;10.60;99.90
32097;DHT22;18610;49.916;8.284;2024-01-25T09:52:29;10.60;99.90
32097;DHT22;18610;49.916;8.284;2024-01-25T09:54:58;10.60;99.90
32097;DHT22;18610;49.916;8.284;2024-01-25T09:57:28;10.60;99.90
32097;DHT22;18610;49.916;8.284;2024-01-25T09:59:56;10.60;99.90
32097;DHT22;18610;49.916;8.284;2024-01-25T10:02:23;10.60;99.90
32097;DHT22;18610;49.916;8.284;2024-01-25T10:04:50;10.60;99.90
32097;DHT22;18610;49.916;8.284;2024-01-25T10:07:35;10.70;99.90
32097;DHT22;18610;49.916;8.284;2024-01-25T10:10:02;10.70;99.90
32097;DHT22;18610;49.916;8.284;2024-01-25T10:12:30;10.80;99.90
32097;DHT22;18610;49.916;8.284;2024-01-25T10:14:57;10.90;99.90
32097;DHT22;18610;49.916;8.284;2024-01-25T10:17:23;10.90;99.90
32097;DHT22;18610;49.916;8.284;2024-01-25T10:19:50;10.90;99.90
32097;DHT22;18610;49.916;8.284;2024-01-25T10:22:18;11.00;99.90
32097;DHT22;18610;49.916;8.284;2024-01-25T10:24:45;11.10;99.90
32097;DHT22;18610;49.916;8.284;2024-01-25T10:27:12;11.10;99.90
32097;DHT22;18610;49.916;8.284;2024-01-25T10:29:39;11.10;99.90
32097;DHT22;18610;49.916;8.284;2024-01-25T10:32:06;11.30;99.90
32097;DHT22;18610;49.916;8.284;2024-01-25T10:34:35;11.40;99.90
32097;DHT22;18610;49.916;8.284;2024-01-25T10:37:03;11.60;99.90
32097;DHT22;18610;49.916;8.284;2024-01-25T10:39:33;11.60;99.90
32097;DHT22;18610;49.916;8.284;2024-01-25T10:42:00;11.70;99.90
32097;DHT22;18610;49.916;8.284;2024-01-25T10:44:27;11.70;99.90
32097;DHT22;18610;49.916;8.284;2024-01-25T10:46:54;11.70;99.90
32097;DHT22;18610;49.916;8.284;2024-01-25T10:49:21;11.80;99.90
32097;DHT22;18610;49.916;8.284;2024-01-25T10:51:48;11.80;99.90
32097;DHT22;18610;49.916;8.284;2024-01-25T10:54:15;11.80;99.90
32097;DHT22;18610;49.916;8.284;2024-01-25T10:56:45;11.80;99.90
32097;DHT22;18610;49.916;8.284;2024-01-25T10:59:12;11.80;99.90
32097;DHT22;18610;49.916;8.284;2024-01-25T11:01:43;11.90;99.90
32097;DHT22;18610;49.916;8.284;2024-01-25T11:04:12;11.90;99.90
32097;DHT22;18610;49.916;8.284;2024-01-25T11:06:39;11.90;99.90
32097;DHT22;18610;49.916;8.284;2024-01-25T11:09:06;12.00;99.90
32097;DHT22;18610;49.916;8.284;2024-01-25T11:11:36;12.00;99.90
32097;DHT22;18610;49.916;8.284;2024-01-25T11:14:04;12.20;99.90
32097;DHT22;18610;49.916;8.284;2024-01-25T11:16:31;12.30;99.90
32097;DHT22;18610;49.916;8.284;2024-01-25T11:19:00;12.30;99.90
32097;DHT22;18610;49.916;8.284;2024-01-25T11:21:40;12.40;99.90
32097;DHT22;18610;49.916;8.284;2024-01-25T11:24:12;12.60;99.90
32097;DHT22;18610;49.916;8.284;2024-01-25T11:26:40;12.60;99.90
32097;DHT22;18610;49.916;8.284;2024-01-25T11:29:08;12.70;99.90
32097;DHT22;18610;49.916;8.284;2024-01-25T11:31:35;12.80;99.90
32097;DHT22;18610;49.916;8.284;2024-01-25T11:34:01;13.00;99.90
32097;DHT22;18610;49.916;8.284;2024-01-25T11:36:28;13.20;99.70
32097;DHT22;18610;49.916;8.284;2024-01-25T11:38:55;13.30;99.60
32097;DHT22;18610;49.916;8.284;2024-01-25T11:41:22;13.60;99.20
32097;DHT22;18610;49.916;8.284;2024-01-25T11:43:49;14.00;98.80
32097;DHT22;18610;49.916;8.284;2024-01-25T11:46:18;14.40;97.80
32097;DHT22;18610;49.916;8.284;2024-01-25T11:48:44;14.60;96.60
32097;DHT22;18610;49.916;8.284;2024-01-25T11:51:12;14.80;96.10
32097;DHT22;18610;49.916;8.284;2024-01-25T11:53:38;14.80;95.70
32097;DHT22;18610;49.916;8.284;2024-01-25T11:56:07;14.90;95.70
32097;DHT22;18610;49.916;8.284;2024-01-25T11:58:36;15.10;95.30
32097;DHT22;18610;49.916;8.284;2024-01-25T12:01:03;15.40;94.80
32097;DHT22;18610;49.916;8.284;2024-01-25T12:03:34;15.60;94.10
32097;DHT22;18610;49.916;8.284;2024-01-25T12:06:02;15.60;93.40
32097;DHT22;18610;49.916;8.284;2024-01-25T12:08:31;15.40;93.60
32097;DHT22;18610;49.916;8.284;2024-01-25T12:11:05;15.30;93.50
32097;DHT22;18610;49.916;8.284;2024-01-25T12:13:32;15.30;93.80
32097;DHT22;18610;49.916;8.284;2024-01-25T12:16:00;15.30;93.60
32097;DHT22;18610;49.916;8.284;2024-01-25T12:18:28;15.30;93.80
32097;DHT22;18610;49.916;8.284;2024-01-25T12:20:58;15.30;93.40
32097;DHT22;18610;49.916;8.284;2024-01-25T12:23:30;15.60;93.60
32097;DHT22;18610;49.916;8.284;2024-01-25T12:25:59;15.90;92.70
32097;DHT22;18610;49.916;8.284;2024-01-25T12:28:26;15.90;92.00
32097;DHT22;18610;49.916;8.284;2024-01-25T12:30:53;16.00;92.10
32097;DHT22;18610;49.916;8.284;2024-01-25T12:33:19;16.10;92.00
32097;DHT22;18610;49.916;8.284;2024-01-25T12:35:46;16.20;91.70
32097;DHT22;18610;49.916;8.284;2024-01-25T12:38:14;16.40;90.70
32097;DHT22;18610;49.916;8.284;2024-01-25T12:40:41;16.10;91.00
32097;DHT22;18610;49.916;8.284;2024-01-25T12:43:08;15.90;91.30
32097;DHT22;18610;49.916;8.284;2024-01-25T12:45:35;15.80;91.70
32097;DHT22;18610;49.916;8.284;2024-01-25T12:48:01;15.70;92.30
32097;DHT22;18610;49.916;8.284;2024-01-25T12:50:29;15.60;92.00
32097;DHT22;18610;49.916;8.284;2024-01-25T12:52:55;15.20;92.50
32097;DHT22;18610;49.916;8.284;2024-01-25T12:55:23;15.00;92.90
32097;DHT22;18610;49.916;8.284;2024-01-25T12:57:50;15.00;93.00
32097;DHT22;18610;49.916;8.284;2024-01-25T13:00:17;15.10;92.80
32097;DHT22;18610;49.916;8.284;2024-01-25T13:02:44;15.30;92.80
32097;DHT22;18610;49.916;8.284;2024-01-25T13:05:10;15.50;92.40
32097;DHT22;18610;49.916;8.284;2024-01-25T13:07:37;15.50;91.50
32097;DHT22;18610;49.916;8.284;2024-01-25T13:10:05;15.30;91.60
32097;DHT22;18610;49.916;8.284;2024-01-25T13:12:33;15.00;92.40
32097;DHT22;18610;49.916;8.284;2024-01-25T13:15:00;14.70;92.50
32097;DHT22;18610;49.916;8.284;2024-01-25T13:17:27;14.70;93.20
32097;DHT22;18610;49.916;8.284;2024-01-25T13:19:55;14.90;93.10
32097;DHT22;18610;49.916;8.284;2024-01-25T13:22:22;15.20;91.80
32097;DHT22;18610;49.916;8.284;2024-01-25T13:24:50;15.20;91.50
32097;DHT22;18610;49.916;8.284;2024-01-25T13:27:16;15.20;91.60
32097;DHT22;18610;49.916;8.284;2024-01-25T13:29:44;15.20;91.50
32097;DHT22;18610;49.916;8.284;2024-01-25T13:32:11;15.10;91.40
32097;DHT22;18610;49.916;8.284;2024-01-25T13:34:38;15.00;91.50
32097;DHT22;18610;49.916;8.284;2024-01-25T13:37:05;15.00;91.70
32097;DHT22;18610;49.916;8.284;2024-01-25T13:39:31;15.00;91.90
32097;DHT22;18610;49.916;8.284;2024-01-25T13:41:58;15.10;92.10
32097;DHT22;18610;49.916;8.284;2024-01-25T13:44:25;15.40;92.50
32097;DHT22;18610;49.916;8.284;2024-01-25T13:46:53;15.60;91.80
32097;DHT22;18610;49.916;8.284;2024-01-25T13:49:21;15.60;92.00
32097;DHT22;18610;49.916;8.284;2024-01-25T13:51:48;15.60;91.10
32097;DHT22;18610;49.916;8.284;2024-01-25T13:54:14;15.50;91.00
32097;DHT22;18610;49.916;8.284;2024-01-25T13:56:41;15.30;91.80
32097;DHT22;18610;49.916;8.284;2024-01-25T13:59:08;14.90;92.20
32097;DHT22;18610;49.916;8.284;2024-01-25T14:01:35;14.70;92.70
32097;DHT22;18610;49.916;8.284;2024-01-25T14:04:04;14.40;92.90
32097;DHT22;18610;49.916;8.284;2024-01-25T14:06:30;14.10;93.40
32097;DHT22;18610;49.916;8.284;2024-01-25T14:08:57;14.00;93.80
32097;DHT22;18610;49.916;8.284;2024-01-25T14:11:24;14.00;94.20
32097;DHT22;18610;49.916;8.284;2024-01-25T14:13:51;14.00;94.40
32097;DHT22;18610;49.916;8.284;2024-01-25T14:16:18;14.00;95.10
32097;DHT22;18610;49.916;8.284;2024-01-25T14:18:45;14.00;95.10
32097;DHT22;18610;49.916;8.284;2024-01-25T14:21:13;14.00;94.50
32097;DHT22;18610;49.916;8.284;2024-01-25T14:23:39;13.90;94.60
32097;DHT22;18610;49.916;8.284;2024-01-25T14:26:06;13.80;94.60
32097;DHT22;18610;49.916;8.284;2024-01-25T14:28:33;13.60;95.00
32097;DHT22;18610;49.916;8.284;2024-01-25T14:30:59;13.40;95.40
32097;DHT22;18610;49.916;8.284;2024-01-25T14:33:26;13.30;95.70
32097;DHT22;18610;49.916;8.284;2024-01-25T14:35:53;13.20;95.90
32097;DHT22;18610;49.916;8.284;2024-01-25T14:38:21;13.10;96.30
32097;DHT22;18610;49.916;8.284;2024-01-25T14:40:48;13.10;97.00
32097;DHT22;18610;49.916;8.284;2024-01-25T14:43:14;13.10;97.30
32097;DHT22;18610;49.916;8.284;2024-01-25T14:45:42;13.10;97.10
32097;DHT22;18610;49.916;8.284;2024-01-25T14:48:09;13.10;97.30
32097;DHT22;18610;49.916;8.284;2024-01-25T14:50:35;13.10;97.70
32097;DHT22;18610;49.916;8.284;2024-01-25T14:53:02;13.20;97.30
32097;DHT22;18610;49.916;8.284;2024-01-25T14:55:30;13.20;97.20
32097;DHT22;18610;49.916;8.284;2024-01-25T14:57:57;13.20;97.00
32097;DHT22;18610;49.916;8.284;2024-01-25T15:00:23;13.20;97.50
32097;DHT22;18610;49.916;8.284;2024-01-25T15:02:50;13.20;97.60
32097;DHT22;18610;49.916;8.284;2024-01-25T15:05:17;13.20;97.90
32097;DHT22;18610;49.916;8.284;2024-01-25T15:07:44;13.10;98.40
32097;DHT22;18610;49.916;8.284;2024-01-25T15:10:11;13.20;98.70
32097;DHT22;18610;49.916;8.284;2024-01-25T15:12:39;13.00;98.80
32097;DHT22;18610;49.916;8.284;2024-01-25T15:15:07;13.00;98.90
32097;DHT22;18610;49.916;8.284;2024-01-25T15:17:34;12.90;99.50
32097;DHT22;18610;49.916;8.284;2024-01-25T15:20:01;12.90;99.90
32097;DHT22;18610;49.916;8.284;2024-01-25T15:22:28;12.80;99.90
32097;DHT22;18610;49.916;8.284;2024-01-25T15:24:56;12.80;99.90
32097;DHT22;18610;49.916;8.284;2024-01-25T15:27:23;12.70;99.90
32097;DHT22;18610;49.916;8.284;2024-01-25T15:29:51;12.60;99.90
32097;DHT22;18610;49.916;8.284;2024-01-25T15:32:18;12.60;99.90
32097;DHT22;18610;49.916;8.284;2024-01-25T15:34:44;12.50;99.90
32097;DHT22;18610;49.916;8.284;2024-01-25T15:37:12;12.40;99.90
32097;DHT22;18610;49.916;8.284;2024-01-25T15:39:39;12.40;99.90